Time;durP1;ratioP1;P1;durP2;ratioP2;P2;SDS_P1;SDS_P2;PMS_P1;PMS_P2;Temp;Humidity;BMP_temperature;BMP_pressure;BME280_temperature;BME280_humidity;BME280_pressure;Samples;Min_cycle;Max_cycle;Signal;HPM_P1;HPM_P2
2023/12/30 00:00:50;;;;;;;0.80;0.80;;;;;;;5.87;82.55;98440.34;5018325;28;20061;-91
2023/12/30 00:03:15;;;;;;;0.80;0.80;;;;;;;5.83;83.17;98445.44;5001917;28;20036;-91
2023/12/30 00:05:41;;;;;;;0.80;0.80;;;;;;;5.89;83.69;98448.34;5009042;28;20045;-90
2023/12/30 00:08:06;;;;;;;0.70;0.70;;;;;;;5.84;83.87;98436.63;5027385;28;20043;-90
2023/12/30 00:10:31;;;;;;;0.70;0.70;;;;;;;5.81;84.01;98437.44;5023937;28;20046;-89
2023/12/30 00:12:57;;;;;;;0.80;0.80;;;;;;;5.94;84.00;98427.38;5029274;28;20029;-90
2023/12/30 00:15:23;;;;;;;0.80;0.80;;;;;;;6.10;83.54;98412.22;5032329;28;20037;-91
2023/12/30 00:17:48;;;;;;;0.80;0.80;;;;;;;6.07;84.34;98411.19;5035409;28;20060;-90
2023/12/30 00:20:14;;;;;;;0.80;0.80;;;;;;;6.12;83.77;98404.31;5018880;28;20069;-91
2023/12/30 00:22:39;;;;;;;0.77;0.77;;;;;;;6.01;84.16;98400.34;5012207;28;20041;-89
2023/12/30 00:25:05;;;;;;;0.80;0.80;;;;;;;6.03;84.43;98396.00;5031586;28;20038;-90
2023/12/30 00:27:31;;;;;;;0.80;0.80;;;;;;;6.05;84.60;98391.69;5022183;28;20054;-91
2023/12/30 00:29:56;;;;;;;0.77;0.77;;;;;;;6.00;84.91;98391.50;5017940;28;20851;-90
2023/12/30 00:32:23;;;;;;;0.70;0.70;;;;;;;6.00;84.82;98390.59;5009842;28;20033;-90
2023/12/30 00:34:49;;;;;;;0.80;0.80;;;;;;;5.91;85.91;98397.31;5023056;28;20046;-90
2023/12/30 00:37:18;;;;;;;0.80;0.80;;;;;;;6.02;86.04;98399.50;4999909;28;20033;-90
2023/12/30 00:39:44;;;;;;;0.70;0.70;;;;;;;5.94;86.47;98399.19;5001747;28;20033;-91
2023/12/30 00:42:10;;;;;;;0.70;0.70;;;;;;;6.13;85.51;98390.22;4999112;28;20052;-90
2023/12/30 00:44:35;;;;;;;0.70;0.70;;;;;;;6.48;83.73;98390.78;5016740;28;20118;-90
2023/12/30 00:47:02;;;;;;;0.70;0.70;;;;;;;6.62;82.76;98392.22;5000647;28;20074;-89
2023/12/30 00:49:28;;;;;;;0.70;0.70;;;;;;;6.72;82.92;98394.38;5013164;28;20073;-90
2023/12/30 00:51:53;;;;;;;0.80;0.80;;;;;;;7.11;81.06;98380.81;5000118;28;20034;-90
2023/12/30 00:54:19;;;;;;;0.70;0.70;;;;;;;7.03;81.11;98380.50;5016159;28;20042;-90
2023/12/30 00:56:46;;;;;;;0.77;0.77;;;;;;;7.21;80.52;98390.91;5013016;28;20037;-91
2023/12/30 00:59:12;;;;;;;0.70;0.70;;;;;;;7.43;80.06;98382.88;5013943;28;20025;-92
2023/12/30 01:01:39;;;;;;;0.70;0.70;;;;;;;7.76;77.69;98379.63;4996253;28;20125;-91
2023/12/30 01:04:04;;;;;;;0.70;0.70;;;;;;;7.97;76.63;98384.75;4997690;28;20068;-90
2023/12/30 01:06:30;;;;;;;0.70;0.70;;;;;;;8.11;75.66;98380.78;4997784;28;20073;-90
2023/12/30 01:08:55;;;;;;;0.70;0.70;;;;;;;8.25;75.10;98383.00;5014025;28;20041;-89
2023/12/30 01:11:22;;;;;;;0.70;0.70;;;;;;;8.32;74.83;98396.53;4996988;28;20448;-89
2023/12/30 01:13:48;;;;;;;0.70;0.70;;;;;;;8.31;74.84;98401.81;5013247;28;20097;-90
2023/12/30 01:16:15;;;;;;;0.60;0.60;;;;;;;8.27;75.81;98402.56;5017844;28;20041;-89
2023/12/30 01:18:40;;;;;;;0.70;0.70;;;;;;;8.51;73.52;98394.50;4997321;28;20460;-91
2023/12/30 01:21:06;;;;;;;0.70;0.70;;;;;;;8.52;74.70;98404.28;4997034;28;20539;-90
2023/12/30 01:23:33;;;;;;;0.70;0.70;;;;;;;8.47;75.14;98401.47;4979988;28;20500;-90
2023/12/30 01:25:58;;;;;;;0.70;0.70;;;;;;;8.36;76.04;98409.09;5030116;28;20061;-92
2023/12/30 01:28:27;;;;;;;0.65;0.65;;;;;;;8.29;76.62;98408.81;5003294;28;20034;-91
2023/12/30 01:30:54;;;;;;;0.70;0.70;;;;;;;8.14;78.04;98415.41;5017109;28;20458;-89
2023/12/30 01:33:20;;;;;;;0.70;0.70;;;;;;;7.92;79.64;98431.50;5029207;28;20124;-91
2023/12/30 01:35:45;;;;;;;0.60;0.60;;;;;;;7.86;80.99;98432.19;5019961;28;20072;-90
2023/12/30 01:38:11;;;;;;;0.60;0.60;;;;;;;7.79;82.23;98440.78;5015743;28;20045;-91
2023/12/30 01:40:36;;;;;;;0.70;0.70;;;;;;;7.58;82.77;98437.38;5002048;28;20033;-92
2023/12/30 01:43:02;;;;;;;0.60;0.60;;;;;;;7.60;83.26;98436.56;5001448;28;20046;-90
2023/12/30 01:45:29;;;;;;;0.70;0.70;;;;;;;7.35;84.68;98440.09;5016588;28;20034;-91
2023/12/30 01:47:55;;;;;;;;;;;;;;;7.28;85.34;98438.06;5005247;28;20038;-91
2023/12/30 01:50:23;;;;;;;0.80;0.80;;;;;;;7.33;85.54;98449.75;5001352;28;19939;-91
2023/12/30 01:52:49;;;;;;;0.70;0.70;;;;;;;7.43;85.12;98456.31;4996668;28;20034;-90
2023/12/30 01:55:16;;;;;;;0.70;0.70;;;;;;;7.48;84.74;98453.81;5009959;28;20057;-89
2023/12/30 01:57:45;;;;;;;0.70;0.70;;;;;;;7.38;85.11;98457.88;5023607;28;20095;-89
2023/12/30 02:00:17;;;;;;;0.70;0.70;;;;;;;7.36;85.43;98465.78;5021735;28;20041;-89
2023/12/30 02:02:44;;;;;;;0.70;0.70;;;;;;;7.43;85.09;98473.13;5012563;28;20057;-91
2023/12/30 02:05:10;;;;;;;0.70;0.70;;;;;;;7.42;85.47;98475.69;5032965;28;20041;-90
2023/12/30 02:07:35;;;;;;;0.70;0.70;;;;;;;7.32;85.96;98479.75;5005748;28;20046;-91
2023/12/30 02:10:03;;;;;;;0.70;0.70;;;;;;;7.34;86.59;98472.78;5038319;28;20122;-89
2023/12/30 02:12:29;;;;;;;0.70;0.70;;;;;;;7.29;86.24;98473.47;5020999;28;20040;-89
2023/12/30 02:15:11;;;;;;;0.80;0.80;;;;;;;7.35;86.88;98471.03;5020325;28;20040;-89
2023/12/30 02:17:36;;;;;;;0.70;0.70;;;;;;;7.24;87.55;98481.25;5030962;28;20034;-89
2023/12/30 02:20:03;;;;;;;0.70;0.70;;;;;;;7.22;87.80;98469.66;5016210;28;20298;-88
2023/12/30 02:22:28;;;;;;;0.75;0.75;;;;;;;7.34;87.84;98474.53;4999419;28;20788;-90
2023/12/30 02:24:59;;;;;;;0.70;0.70;;;;;;;7.23;87.96;98471.47;4998998;28;20083;-89
2023/12/30 02:27:25;;;;;;;0.70;0.70;;;;;;;7.20;88.36;98480.22;5000665;28;20038;-88
2023/12/30 02:29:51;;;;;;;0.80;0.80;;;;;;;7.12;88.42;98472.81;5016498;28;20065;-89
2023/12/30 02:32:17;;;;;;;0.75;0.75;;;;;;;7.13;89.06;98479.91;5007552;28;20060;-88
2023/12/30 02:34:44;;;;;;;0.75;0.75;;;;;;;7.11;90.11;98469.25;5016032;28;20125;-89
2023/12/30 02:37:10;;;;;;;0.70;0.70;;;;;;;7.20;89.29;98477.56;5001134;28;20048;-89
2023/12/30 02:39:36;;;;;;;0.70;0.70;;;;;;;7.13;89.48;98482.56;5003127;28;20033;-89
2023/12/30 02:42:01;;;;;;;0.80;0.80;;;;;;;7.19;89.33;98480.16;4991864;28;20132;-90
2023/12/30 02:44:26;;;;;;;0.70;0.70;;;;;;;7.23;89.26;98484.72;5003796;28;20045;-90
2023/12/30 02:46:53;;;;;;;0.80;0.80;;;;;;;7.23;89.56;98484.72;5028204;28;20200;-89
2023/12/30 02:49:19;;;;;;;0.70;0.70;;;;;;;7.11;90.39;98484.28;5030777;28;20115;-89
2023/12/30 02:51:45;;;;;;;0.77;0.77;;;;;;;7.08;90.74;98489.44;4982065;28;20050;-88
2023/12/30 02:54:11;;;;;;;0.73;0.73;;;;;;;7.06;90.54;98493.81;5013263;28;20037;-89
2023/12/30 02:56:36;;;;;;;0.60;0.60;;;;;;;7.02;91.34;98497.16;4995664;28;20045;-89
2023/12/30 02:59:02;;;;;;;0.80;0.80;;;;;;;6.98;91.57;98493.50;5017815;28;20030;-89
2023/12/30 03:01:29;;;;;;;0.70;0.70;;;;;;;7.02;91.78;98498.06;5018036;28;20164;-89
2023/12/30 03:03:57;;;;;;;0.70;0.70;;;;;;;7.15;91.79;98507.44;5017966;28;20037;-88
2023/12/30 03:06:23;;;;;;;0.70;0.70;;;;;;;7.10;91.75;98507.25;5031208;28;20041;-89
2023/12/30 03:08:49;;;;;;;0.70;0.70;;;;;;;7.06;91.88;98513.28;5027616;28;20036;-88
2023/12/30 03:11:16;;;;;;;0.70;0.70;;;;;;;7.00;91.87;98507.72;5017431;28;20061;-88
2023/12/30 03:13:44;;;;;;;0.70;0.70;;;;;;;7.07;91.54;98511.50;5045420;28;20121;-90
2023/12/30 03:16:14;;;;;;;;;;;;;;;7.02;92.02;98511.34;5034951;28;20029;-92
2023/12/30 03:18:40;;;;;;;0.70;0.70;;;;;;;6.97;91.89;98514.66;5031874;28;19922;-91
2023/12/30 03:21:09;;;;;;;0.70;0.70;;;;;;;7.01;92.13;98519.25;5011150;28;20499;-90
2023/12/30 03:23:40;;;;;;;0.80;0.80;;;;;;;6.96;92.15;98528.78;5022058;28;20037;-89
2023/12/30 03:26:08;;;;;;;0.80;0.80;;;;;;;6.92;92.64;98520.69;5006142;28;20771;-88
2023/12/30 03:28:34;;;;;;;0.80;0.80;;;;;;;6.92;92.73;98525.06;5019799;28;20038;-89
2023/12/30 03:31:00;;;;;;;0.70;0.70;;;;;;;6.98;92.60;98516.47;5003160;28;20034;-89
2023/12/30 03:33:26;;;;;;;0.70;0.70;;;;;;;6.87;93.01;98511.63;5015322;28;20036;-89
2023/12/30 03:35:52;;;;;;;0.80;0.80;;;;;;;6.97;92.65;98519.97;4998448;28;20045;-89
2023/12/30 03:38:17;;;;;;;0.70;0.70;;;;;;;6.97;92.48;98534.13;4997197;28;20030;-89
2023/12/30 03:40:44;;;;;;;0.70;0.70;;;;;;;7.08;92.22;98521.28;5022010;28;20052;-89
2023/12/30 03:43:10;;;;;;;0.80;0.80;;;;;;;7.05;92.19;98526.47;5022466;28;20034;-89
2023/12/30 03:45:37;;;;;;;0.80;0.80;;;;;;;7.01;92.38;98519.25;5020588;28;20057;-89
2023/12/30 03:48:04;;;;;;;0.70;0.70;;;;;;;6.98;92.37;98535.94;5016865;28;20033;-89
2023/12/30 03:50:30;;;;;;;0.70;0.70;;;;;;;6.82;93.12;98531.75;5021071;28;20049;-88
2023/12/30 03:52:57;;;;;;;0.70;0.70;;;;;;;6.87;93.15;98531.94;5033918;28;20249;-88
2023/12/30 03:55:23;;;;;;;0.70;0.70;;;;;;;6.81;93.60;98518.44;5019713;28;20033;-88
2023/12/30 03:57:48;;;;;;;0.70;0.70;;;;;;;6.75;93.60;98526.13;4998433;28;20041;-88
2023/12/30 04:00:14;;;;;;;0.70;0.70;;;;;;;6.74;93.53;98524.34;5014687;28;20041;-89
2023/12/30 04:02:40;;;;;;;0.80;0.80;;;;;;;6.73;94.17;98523.44;5015067;28;20048;-88
2023/12/30 04:05:06;;;;;;;0.70;0.70;;;;;;;6.79;94.22;98526.31;5001067;28;20744;-90
2023/12/30 04:07:32;;;;;;;0.70;0.70;;;;;;;6.78;93.85;98521.88;5014195;28;20038;-89
2023/12/30 04:09:58;;;;;;;0.70;0.70;;;;;;;6.75;93.82;98521.72;5003865;28;20038;-89
2023/12/30 04:12:23;;;;;;;0.70;0.70;;;;;;;6.73;93.82;98519.88;4999791;28;21563;-88
2023/12/30 04:14:49;;;;;;;0.70;0.70;;;;;;;6.66;93.93;98519.63;5012987;28;20107;-88
2023/12/30 04:17:15;;;;;;;0.70;0.70;;;;;;;6.69;94.12;98505.59;5007152;28;20095;-89
2023/12/30 04:19:40;;;;;;;0.70;0.70;;;;;;;6.82;93.21;98521.16;5015806;28;20047;-87
2023/12/30 04:22:06;;;;;;;0.70;0.70;;;;;;;6.91;92.70;98510.91;4992248;28;20042;-88
2023/12/30 04:24:31;;;;;;;0.70;0.70;;;;;;;6.90;91.73;98509.13;5011775;28;20055;-88
2023/12/30 04:26:56;;;;;;;0.80;0.80;;;;;;;6.87;90.93;98516.94;5009472;28;20081;-89
2023/12/30 04:29:22;;;;;;;0.80;0.80;;;;;;;6.85;91.00;98513.34;5011730;28;20052;-89
2023/12/30 04:31:48;;;;;;;0.80;0.80;;;;;;;6.91;90.24;98523.28;5006702;28;20121;-89
2023/12/30 04:34:14;;;;;;;0.80;0.80;;;;;;;6.98;89.87;98521.75;4993809;28;20029;-90
2023/12/30 04:36:39;;;;;;;0.80;0.80;;;;;;;6.95;89.50;98530.53;4992725;28;20168;-88
2023/12/30 04:39:05;;;;;;;0.70;0.70;;;;;;;7.01;89.35;98522.78;4996848;28;20088;-88
2023/12/30 04:41:31;;;;;;;0.80;0.80;;;;;;;6.98;89.18;98529.72;4992074;28;20068;-89
2023/12/30 04:43:57;;;;;;;0.70;0.70;;;;;;;7.04;88.76;98530.88;5013233;28;20037;-89
2023/12/30 04:46:23;;;;;;;0.80;0.80;;;;;;;6.92;89.27;98533.03;5012922;28;20029;-88
2023/12/30 04:48:52;;;;;;;0.80;0.80;;;;;;;6.83;89.66;98530.00;5015198;28;20053;-89
2023/12/30 04:51:18;;;;;;;0.70;0.70;;;;;;;6.78;90.03;98532.47;5013256;28;20099;-89
2023/12/30 04:53:44;;;;;;;0.80;0.80;;;;;;;6.88;89.29;98531.09;4994009;28;20046;-88
2023/12/30 04:56:17;;;;;;;0.70;0.70;;;;;;;6.83;89.24;98545.91;4998062;28;20041;-90
2023/12/30 04:58:43;;;;;;;0.80;0.80;;;;;;;6.84;88.91;98545.97;4999762;28;20090;-91
2023/12/30 05:01:11;;;;;;;0.80;0.80;;;;;;;6.92;88.62;98547.19;4997117;28;20120;-89
2023/12/30 05:03:37;;;;;;;0.70;0.70;;;;;;;6.96;88.62;98550.00;4992714;28;20684;-89
2023/12/30 05:06:03;;;;;;;0.80;0.80;;;;;;;6.91;88.19;98547.16;5012524;28;20052;-90
2023/12/30 05:08:29;;;;;;;0.70;0.70;;;;;;;6.85;88.41;98553.09;5013941;28;20034;-89
2023/12/30 05:10:55;;;;;;;0.70;0.70;;;;;;;6.91;88.45;98540.09;5006337;28;20093;-89
2023/12/30 05:13:20;;;;;;;0.80;0.80;;;;;;;6.83;88.65;98536.22;4995911;28;20133;-89
2023/12/30 05:15:48;;;;;;;0.80;0.80;;;;;;;6.84;88.56;98526.50;5015481;28;20048;-88
2023/12/30 05:18:14;;;;;;;0.80;0.80;;;;;;;6.82;88.54;98536.16;5021751;28;20029;-89
2023/12/30 05:20:40;;;;;;;0.70;0.70;;;;;;;6.79;88.60;98539.59;5035829;28;20091;-88
2023/12/30 05:23:06;;;;;;;0.80;0.80;;;;;;;6.92;88.22;98544.53;5032507;28;20042;-88
2023/12/30 05:25:31;;;;;;;0.80;0.80;;;;;;;6.83;87.81;98537.97;5018146;28;20040;-88
2023/12/30 05:27:56;;;;;;;0.80;0.80;;;;;;;6.65;88.46;98533.72;5021669;28;20038;-89
2023/12/30 05:30:22;;;;;;;0.70;0.70;;;;;;;6.58;89.13;98536.06;5012639;28;20121;-90
2023/12/30 05:32:47;;;;;;;0.80;0.80;;;;;;;6.55;89.65;98536.81;5003642;28;20141;-89
2023/12/30 05:35:14;;;;;;;0.80;0.80;;;;;;;6.64;89.23;98533.66;5019595;28;20029;-88
2023/12/30 05:37:40;;;;;;;0.80;0.80;;;;;;;6.60;89.91;98531.72;5021621;28;20038;-89
2023/12/30 05:40:07;;;;;;;0.80;0.80;;;;;;;6.70;88.70;98531.25;5014798;28;20325;-88
2023/12/30 05:42:33;;;;;;;0.80;0.80;;;;;;;6.61;89.02;98536.16;5023994;28;20045;-91
2023/12/30 05:44:58;;;;;;;0.70;0.70;;;;;;;6.51;89.74;98533.97;5033184;28;20048;-90
2023/12/30 05:47:24;;;;;;;0.80;0.80;;;;;;;6.60;89.34;98529.97;5030125;28;20042;-90
2023/12/30 05:49:49;;;;;;;0.70;0.70;;;;;;;6.72;88.67;98534.88;5024224;28;20084;-89
2023/12/30 05:52:15;;;;;;;0.80;0.80;;;;;;;6.80;88.71;98535.19;5003944;28;20044;-90
2023/12/30 05:54:40;;;;;;;0.70;0.70;;;;;;;6.80;88.51;98537.81;5036426;28;20041;-89
2023/12/30 05:57:06;;;;;;;0.80;0.80;;;;;;;6.73;88.30;98533.13;5037418;28;20099;-90
2023/12/30 05:59:31;;;;;;;0.80;0.80;;;;;;;6.64;88.32;98534.56;5006120;28;20041;-89
2023/12/30 06:01:58;;;;;;;0.73;0.73;;;;;;;6.74;88.33;98540.25;5013210;28;20085;-91
2023/12/30 06:04:25;;;;;;;0.80;0.80;;;;;;;6.76;88.35;98539.47;5024258;28;20046;-89
2023/12/30 06:06:50;;;;;;;0.80;0.80;;;;;;;6.82;88.25;98542.38;5022334;28;20399;-89
2023/12/30 06:09:16;;;;;;;0.80;0.80;;;;;;;6.93;87.57;98549.00;5017966;28;20025;-89
2023/12/30 06:11:41;;;;;;;0.80;0.80;;;;;;;7.23;85.74;98548.41;4999307;28;20035;-88
2023/12/30 06:14:07;;;;;;;0.70;0.70;;;;;;;7.13;86.17;98546.25;5015627;28;20757;-89
2023/12/30 06:16:32;;;;;;;0.68;0.68;;;;;;;7.01;87.16;98544.00;5001703;28;20060;-90
2023/12/30 06:18:58;;;;;;;0.80;0.80;;;;;;;7.06;86.75;98552.16;5014833;28;20479;-89
2023/12/30 06:21:23;;;;;;;0.70;0.70;;;;;;;7.00;87.00;98554.56;5019697;28;20050;-89
2023/12/30 06:23:49;;;;;;;0.70;0.70;;;;;;;6.98;87.37;98559.78;5015251;28;20135;-89
2023/12/30 06:26:14;;;;;;;0.70;0.70;;;;;;;7.12;86.41;98557.69;4997380;28;20076;-89
2023/12/30 06:28:40;;;;;;;0.70;0.70;;;;;;;7.16;86.30;98552.56;4998389;28;20069;-92
2023/12/30 06:31:06;;;;;;;0.80;0.80;;;;;;;7.22;86.24;98551.00;5020819;28;20592;-90
2023/12/30 06:33:31;;;;;;;0.70;0.70;;;;;;;7.30;85.51;98547.81;5000677;28;20076;-90
2023/12/30 06:35:57;;;;;;;0.70;0.70;;;;;;;7.30;85.64;98545.16;5011249;28;20467;-91
2023/12/30 06:38:22;;;;;;;0.70;0.70;;;;;;;7.30;85.66;98553.13;5014677;28;20677;-90
2023/12/30 06:40:47;;;;;;;0.63;0.63;;;;;;;7.39;84.94;98557.88;5003451;28;20121;-91
2023/12/30 06:43:13;;;;;;;0.80;0.80;;;;;;;7.43;84.44;98568.69;5025736;28;20062;-91
2023/12/30 06:45:39;;;;;;;0.70;0.70;;;;;;;7.59;84.26;98566.63;5009026;28;20041;-90
2023/12/30 06:48:05;;;;;;;0.70;0.70;;;;;;;7.55;83.99;98568.25;5000525;28;20101;-90
2023/12/30 06:50:30;;;;;;;0.70;0.70;;;;;;;7.60;83.86;98574.63;5001551;28;20506;-91
2023/12/30 06:52:56;;;;;;;0.80;0.80;;;;;;;7.57;83.59;98570.94;5029367;28;20518;-89
2023/12/30 06:55:22;;;;;;;0.80;0.80;;;;;;;7.59;83.64;98579.88;5003226;28;20041;-91
2023/12/30 06:57:48;;;;;;;0.75;0.75;;;;;;;7.57;83.78;98581.56;5035287;28;20022;-90
2023/12/30 07:00:14;;;;;;;0.70;0.70;;;;;;;7.49;84.89;98578.63;5028990;28;20042;-90
2023/12/30 07:02:41;;;;;;;0.70;0.70;;;;;;;7.47;84.54;98585.59;5018113;28;20040;-91
2023/12/30 07:05:07;;;;;;;;;;;;;;;7.42;85.30;98580.13;5007252;28;20389;-90
2023/12/30 07:07:33;;;;;;;0.80;0.80;;;;;;;7.38;85.88;98586.19;5021530;28;19936;-89
2023/12/30 07:09:59;;;;;;;0.75;0.75;;;;;;;7.40;85.39;98591.53;5014772;28;20399;-89
2023/12/30 07:12:24;;;;;;;0.80;0.80;;;;;;;7.45;84.64;98597.94;5014677;28;20052;-88
2023/12/30 07:14:49;;;;;;;0.70;0.70;;;;;;;7.26;85.52;98600.69;5002432;28;20124;-90
2023/12/30 07:17:15;;;;;;;0.80;0.80;;;;;;;7.24;86.71;98605.06;4998731;28;20037;-90
2023/12/30 07:19:41;;;;;;;0.60;0.60;;;;;;;7.26;86.54;98606.91;5009538;28;20058;-90
2023/12/30 07:22:06;;;;;;;0.75;0.75;;;;;;;7.25;86.07;98618.38;5017688;28;20042;-89
2023/12/30 07:24:32;;;;;;;0.80;0.80;;;;;;;7.25;86.57;98610.41;5000487;28;20050;-90
2023/12/30 07:26:58;;;;;;;0.80;0.80;;;;;;;7.32;86.55;98603.59;4994047;28;20087;-90
2023/12/30 07:29:24;;;;;;;0.70;0.70;;;;;;;7.27;87.19;98611.38;5016436;28;20041;-90
2023/12/30 07:31:50;;;;;;;0.80;0.80;;;;;;;7.28;86.76;98613.22;5019475;28;21103;-89
2023/12/30 07:34:17;;;;;;;0.70;0.70;;;;;;;7.22;87.28;98610.28;5012925;28;20033;-89
2023/12/30 07:36:43;;;;;;;0.80;0.80;;;;;;;7.09;88.43;98607.97;5019474;28;20045;-91
2023/12/30 07:39:08;;;;;;;0.75;0.75;;;;;;;7.07;88.75;98612.31;5013114;28;20026;-90
2023/12/30 07:41:34;;;;;;;0.70;0.70;;;;;;;7.17;88.29;98610.09;5014269;28;20071;-89
2023/12/30 07:43:59;;;;;;;0.70;0.70;;;;;;;7.27;87.69;98606.06;4998685;28;20128;-89
2023/12/30 07:46:25;;;;;;;0.80;0.80;;;;;;;7.23;88.05;98616.50;4996549;28;20072;-90
2023/12/30 07:48:51;;;;;;;0.70;0.70;;;;;;;7.23;87.77;98616.50;5019791;28;20504;-88
2023/12/30 07:51:16;;;;;;;0.70;0.70;;;;;;;7.19;88.13;98616.38;4999734;28;20037;-90
2023/12/30 07:53:42;;;;;;;0.70;0.70;;;;;;;7.30;87.55;98619.47;5016120;28;20400;-91
2023/12/30 07:56:08;;;;;;;0.70;0.70;;;;;;;7.25;87.64;98626.34;5037940;28;20041;-92
2023/12/30 07:58:34;;;;;;;0.70;0.70;;;;;;;7.42;87.48;98629.66;5033882;28;20041;-90
2023/12/30 08:01:00;;;;;;;0.80;0.80;;;;;;;7.37;87.79;98629.47;5048913;28;20038;-93
2023/12/30 08:03:25;;;;;;;0.70;0.70;;;;;;;7.33;88.18;98629.28;5029914;28;20065;-89
2023/12/30 08:05:52;;;;;;;0.70;0.70;;;;;;;7.42;88.27;98635.84;5041908;28;20049;-90
2023/12/30 08:08:19;;;;;;;0.70;0.70;;;;;;;7.56;87.68;98630.19;5014044;28;20038;-91
2023/12/30 08:10:44;;;;;;;0.70;0.70;;;;;;;7.51;87.80;98629.13;5028749;28;20049;-91
2023/12/30 08:13:10;;;;;;;0.70;0.70;;;;;;;7.55;88.16;98633.69;5020154;28;20048;-91
2023/12/30 08:15:35;;;;;;;0.80;0.80;;;;;;;7.51;88.35;98634.44;5034094;28;20068;-89
2023/12/30 08:18:01;;;;;;;0.70;0.70;;;;;;;7.45;89.14;98638.66;5008835;28;20045;-89
2023/12/30 08:20:26;;;;;;;0.70;0.70;;;;;;;7.56;89.03;98639.06;5003540;28;20140;-90
2023/12/30 08:22:51;;;;;;;0.60;0.60;;;;;;;7.64;88.61;98637.63;5005044;28;20069;-89
2023/12/30 08:25:17;;;;;;;0.70;0.70;;;;;;;7.69;89.18;98645.78;5002112;28;20056;-90
2023/12/30 08:27:42;;;;;;;0.70;0.70;;;;;;;7.67;89.03;98640.41;5019980;28;20049;-90
2023/12/30 08:30:09;;;;;;;0.70;0.70;;;;;;;7.58;89.29;98647.13;5027486;28;20038;-89
2023/12/30 08:32:34;;;;;;;0.70;0.70;;;;;;;7.41;90.07;98644.66;5018996;28;20256;-90
2023/12/30 08:35:02;;;;;;;0.70;0.70;;;;;;;7.37;90.57;98637.44;5020019;28;20133;-89
2023/12/30 08:37:28;;;;;;;0.70;0.70;;;;;;;7.37;90.87;98648.03;5011694;28;20124;-90
2023/12/30 08:39:54;;;;;;;0.70;0.70;;;;;;;7.30;92.23;98642.44;5017777;28;20037;-90
2023/12/30 08:42:21;;;;;;;0.70;0.70;;;;;;;7.29;92.07;98645.94;5011768;28;20034;-90
2023/12/30 08:44:47;;;;;;;0.70;0.70;;;;;;;7.30;91.89;98647.75;5011727;28;20052;-89
2023/12/30 08:47:17;;;;;;;0.70;0.70;;;;;;;7.37;91.78;98656.00;5031449;28;20032;-89
2023/12/30 08:49:42;;;;;;;0.70;0.70;;;;;;;7.35;92.03;98660.34;5031754;28;20092;-90
2023/12/30 08:52:08;;;;;;;0.70;0.70;;;;;;;7.40;92.19;98655.25;5034640;28;20046;-91
2023/12/30 08:54:37;;;;;;;0.60;0.60;;;;;;;7.43;92.06;98648.31;5009220;28;20033;-92
2023/12/30 08:57:03;;;;;;;0.70;0.70;;;;;;;7.35;92.92;98659.47;5033407;28;20050;-90
2023/12/30 08:59:29;;;;;;;0.70;0.70;;;;;;;7.42;92.23;98667.72;5008972;28;20056;-90
2023/12/30 09:01:55;;;;;;;0.75;0.75;;;;;;;7.52;92.35;98663.72;5017364;28;20100;-91
2023/12/30 09:04:20;;;;;;;0.70;0.70;;;;;;;7.52;91.90;98660.13;5008977;28;20041;-91
2023/12/30 09:06:46;;;;;;;0.70;0.70;;;;;;;7.58;92.21;98671.00;5018105;28;20490;-90
2023/12/30 09:09:12;;;;;;;0.73;0.73;;;;;;;7.61;91.94;98679.06;4987023;28;20045;-90
2023/12/30 09:11:38;;;;;;;0.70;0.70;;;;;;;7.61;91.42;98671.09;5016389;28;20068;-90
2023/12/30 09:14:05;;;;;;;0.70;0.70;;;;;;;7.73;91.30;98674.25;5031161;28;20041;-90
2023/12/30 09:16:34;;;;;;;0.70;0.70;;;;;;;7.93;90.18;98673.28;5002536;28;20038;-90
2023/12/30 09:19:00;;;;;;;0.77;0.77;;;;;;;7.98;89.70;98666.38;5005659;28;20028;-90
2023/12/30 09:21:25;;;;;;;0.70;0.70;;;;;;;8.05;89.19;98667.53;5000886;28;20037;-90
2023/12/30 09:23:53;;;;;;;0.70;0.70;;;;;;;8.01;89.14;98670.94;4997022;28;20026;-90
2023/12/30 09:26:18;;;;;;;;;;;;;;;8.04;89.11;98678.09;4985172;28;20038;-92
2023/12/30 09:28:44;;;;;;;0.77;0.77;;;;;;;7.98;89.74;98676.09;5022443;28;19928;-90
2023/12/30 09:31:10;;;;;;;0.70;0.70;;;;;;;8.04;89.66;98675.44;5011471;28;20038;-91
2023/12/30 09:33:36;;;;;;;0.80;0.80;;;;;;;8.05;89.80;98670.19;5006002;28;20037;-90
2023/12/30 09:36:04;;;;;;;0.75;0.75;;;;;;;8.30;89.20;98680.00;4986202;28;20038;-91
2023/12/30 09:38:30;;;;;;;0.70;0.70;;;;;;;8.44;88.99;98680.53;4982580;28;20053;-91
2023/12/30 09:40:56;;;;;;;0.70;0.70;;;;;;;8.43;88.19;98669.00;5015785;28;20037;-90
2023/12/30 09:43:26;;;;;;;0.70;0.70;;;;;;;8.66;87.84;98668.91;5004423;28;20044;-90
2023/12/30 09:45:54;;;;;;;0.70;0.70;;;;;;;8.69;87.07;98672.59;5013534;28;20041;-91
2023/12/30 09:48:25;;;;;;;0.70;0.70;;;;;;;8.92;86.29;98673.41;5003828;28;20114;-90
2023/12/30 09:50:56;;;;;;;0.60;0.60;;;;;;;9.30;84.09;98676.44;5018999;28;20044;-90
2023/12/30 09:53:23;;;;;;;0.60;0.60;;;;;;;9.45;83.37;98671.63;5017509;28;20034;-91
2023/12/30 09:55:50;;;;;;;0.70;0.70;;;;;;;9.66;83.26;98670.50;5012956;28;20066;-90
2023/12/30 09:58:17;;;;;;;0.70;0.70;;;;;;;10.07;82.14;98663.78;5006045;28;20057;-91
2023/12/30 10:00:43;;;;;;;0.60;0.60;;;;;;;10.27;80.95;98662.63;5017325;28;20049;-92
2023/12/30 10:03:14;;;;;;;0.60;0.60;;;;;;;10.15;79.82;98662.22;5007644;28;20038;-92
2023/12/30 10:05:40;;;;;;;0.60;0.60;;;;;;;9.86;80.65;98668.44;5002317;28;20033;-94
2023/12/30 10:08:07;;;;;;;0.60;0.60;;;;;;;9.80;79.76;98671.81;4998518;28;20030;-93
2023/12/30 10:10:45;;;;;;;0.60;0.60;;;;;;;9.75;81.69;98668.13;5022949;28;20052;-92
2023/12/30 10:13:12;;;;;;;0.65;0.65;;;;;;;9.48;82.33;98678.78;5019849;28;20098;-93
2023/12/30 10:15:39;;;;;;;0.70;0.70;;;;;;;9.25;82.93;98683.38;5027076;28;20088;-94
2023/12/30 10:18:07;;;;;;;;;;;;;;;9.12;84.22;98676.72;5026396;28;20046;-92
2023/12/30 10:20:41;;;;;;;0.70;0.70;;;;;;;9.39;83.06;98666.09;5031513;28;20426;-95
2023/12/30 10:23:07;;;;;;;0.70;0.70;;;;;;;9.54;83.23;98675.44;5040254;28;20081;-95
2023/12/30 10:25:35;;;;;;;0.60;0.60;;;;;;;10.03;80.53;98676.09;5047141;28;20064;-95
2023/12/30 10:28:02;;;;;;;0.60;0.60;;;;;;;10.18;79.82;98661.44;5015990;28;20036;-94
2023/12/30 10:30:30;;;;;;;0.60;0.60;;;;;;;10.08;79.76;98668.25;5012482;28;20042;-94
2023/12/30 10:33:09;;;;;;;0.70;0.70;;;;;;;10.30;79.96;98661.84;5023282;28;20038;-95
2023/12/30 10:35:35;;;;;;;0.60;0.60;;;;;;;10.78;76.47;98654.31;5023982;28;20034;-95
2023/12/30 10:38:04;;;;;;;0.70;0.70;;;;;;;11.39;74.90;98654.94;4991082;28;20046;-96
2023/12/30 10:40:30;;;;;;;0.70;0.70;;;;;;;13.48;68.38;98637.00;5022848;28;20067;-95
2023/12/30 10:42:57;;;;;;;0.50;0.50;;;;;;;14.91;61.92;98631.75;5005682;28;20507;-96
2023/12/30 10:45:25;;;;;;;0.55;0.55;;;;;;;15.53;59.10;98620.66;5020252;28;20026;-96
2023/12/30 10:47:55;;;;;;;0.40;0.40;;;;;;;14.60;61.26;98627.81;5024435;28;20099;-96
2023/12/30 10:50:24;;;;;;;0.43;0.43;;;;;;;14.52;61.48;98622.38;5010462;28;20041;-95
2023/12/30 10:52:59;;;;;;;0.40;0.40;;;;;;;15.01;59.18;98612.16;5000955;28;20571;-96
2023/12/30 10:55:31;;;;;;;0.40;0.40;;;;;;;15.49;59.24;98610.78;5030300;28;20382;-94
2023/12/30 10:58:03;;;;;;;0.40;0.40;;;;;;;15.37;59.26;98616.94;5023020;28;20038;-93
2023/12/30 11:00:35;;;;;;;0.30;0.30;;;;;;;15.77;57.45;98617.28;5024169;28;20053;-94
2023/12/30 11:03:04;;;;;;;0.40;0.40;;;;;;;15.83;56.87;98616.41;5033944;28;20045;-94
2023/12/30 11:05:38;;;;;;;0.40;0.40;;;;;;;14.44;52.84;98631.19;5028989;28;20046;-94
2023/12/30 11:08:07;;;;;;;0.40;0.40;;;;;;;13.38;54.60;98628.78;5021842;28;20088;-92
2023/12/30 11:10:34;;;;;;;0.50;0.50;;;;;;;13.46;53.77;98630.72;5005909;28;20040;-92
2023/12/30 11:13:00;;;;;;;0.57;0.57;;;;;;;13.55;54.25;98632.63;5028521;28;20038;-93
2023/12/30 11:15:28;;;;;;;0.60;0.60;;;;;;;14.46;52.19;98627.63;5014269;28;20041;-92
2023/12/30 11:17:56;;;;;;;0.60;0.60;;;;;;;14.50;51.83;98629.50;5030152;28;20081;-93
2023/12/30 11:20:32;;;;;;;0.60;0.60;;;;;;;14.35;51.78;98621.22;5008277;28;20033;-93
2023/12/30 11:23:01;;;;;;;0.50;0.50;;;;;;;14.52;50.60;98621.50;5007002;28;20046;-93
2023/12/30 11:25:40;;;;;;;0.50;0.50;;;;;;;14.06;50.27;98621.75;5006501;28;20049;-92
2023/12/30 11:28:16;;;;;;;0.60;0.60;;;;;;;14.36;50.19;98613.19;5026136;28;20045;-91
2023/12/30 11:30:45;;;;;;;0.60;0.60;;;;;;;15.00;49.49;98607.69;5033143;28;20076;-92
2023/12/30 11:33:13;;;;;;;0.60;0.60;;;;;;;14.93;49.07;98612.97;5007045;28;20494;-93
2023/12/30 11:35:40;;;;;;;0.50;0.50;;;;;;;14.58;49.00;98611.72;5034542;28;20064;-92
2023/12/30 11:38:09;;;;;;;0.60;0.60;;;;;;;14.55;48.69;98614.34;5026963;28;20033;-92